Time;durP1;ratioP1;P1;durP2;ratioP2;P2;SDS_P1;SDS_P2;PMS_P1;PMS_P2;Temp;Humidity;BMP_temperature;BMP_pressure;BME280_temperature;BME280_humidity;BME280_pressure;Samples;Min_cycle;Max_cycle;Signal;HPM_P1;HPM_P2
2023/05/17 06:38:55;;;;;;;10.00;2.07;;;;;;;;;;5104451;28;20471;-81
2023/05/17 06:41:26;;;;;;;8.10;2.00;;;;;;;;;;5108970;28;20433;-81
2023/05/17 06:43:54;;;;;;;6.93;2.10;;;;;;;;;;5109279;28;20447;-80
2023/05/17 06:46:22;;;;;;;12.87;2.60;;;;;;;;;;5110172;28;20455;-80
2023/05/17 06:48:53;;;;;;;12.60;2.53;;;;;;;;;;5105515;28;20452;-80
2023/05/17 06:51:21;;;;;;;3.60;1.40;;;;;;;;;;5103527;28;20428;-82
2023/05/17 06:53:54;;;;;;;13.57;3.50;;;;;;;;;;5100723;28;20966;-82
2023/05/17 07:02:31;;;;;;;7.93;1.37;;;;;;;;;;5075312;28;20501;-80
2023/05/17 07:05:00;;;;;;;12.70;2.50;;;;;;;;;;5081427;28;20999;-81
2023/05/17 07:10:39;;;;;;;7.03;1.70;;;;;;;;;;5096241;28;20411;-80
2023/05/17 07:13:07;;;;;;;8.40;1.90;;;;;;;;;;5094192;28;20455;-80
2023/05/17 07:15:35;;;;;;;8.80;1.60;;;;;;;;;;5100873;28;20445;-80
2023/05/17 07:18:13;;;;;;;5.17;1.80;;;;;;;;;;5082905;28;20473;-80
2023/05/17 07:23:15;;;;;;;7.00;1.70;;;;;;;;;;5066788;28;20472;-70
2023/05/17 07:26:21;;;;;;;5.33;1.30;;;;;;;;;;5058981;28;20454;-70
2023/05/17 07:28:56;;;;;;;8.40;1.67;;;;;;;;;;5045388;28;20461;-69
2023/05/17 07:31:25;;;;;;;12.43;2.73;;;;;;;;;;5059045;28;20456;-69
2023/05/17 07:36:30;;;;;;;7.60;1.40;;;;;;;;;;5040221;26;20477;-70
2023/05/17 07:38:58;;;;;;;6.90;1.40;;;;;;;;;;5063605;28;20465;-69
2023/05/17 07:41:26;;;;;;;5.33;1.30;;;;;;;;;;5033100;28;20574;-69
2023/05/17 07:44:00;;;;;;;10.30;1.50;;;;;;;;;;5033893;28;20574;-71
2023/05/17 07:46:29;;;;;;;6.47;1.40;;;;;;;;;;5039392;28;20476;-70
2023/05/17 07:49:00;;;;;;;9.17;2.33;;;;;;;;;;5031868;28;20455;-71
2023/05/17 07:51:33;;;;;;;12.00;2.13;;;;;;;;;;5032567;28;20546;-70
2023/05/17 07:54:15;;;;;;;8.93;2.23;;;;;;;;;;5041583;28;20527;-69
2023/05/17 07:57:03;;;;;;;6.13;1.50;;;;;;;;;;5053449;28;20473;-70
2023/05/17 07:59:38;;;;;;;6.30;1.50;;;;;;;;;;5019777;28;20719;-71
2023/05/17 08:02:23;;;;;;;4.90;1.00;;;;;;;;;;5027260;28;20464;-71
2023/05/17 08:04:50;;;;;;;4.70;2.20;;;;;;;;;;5023835;28;21113;-71
2023/05/17 08:07:18;;;;;;;10.97;2.50;;;;;;;;;;5033816;28;20540;-70
2023/05/17 08:09:48;;;;;;;4.83;1.23;;;;;;;;;;5037429;28;20848;-70
2023/05/17 08:12:48;;;;;;;5.00;1.40;;;;;;;;;;5034671;28;20442;-69
2023/05/17 08:15:58;;;;;;;4.23;1.77;;;;;;;;;;5031650;28;20454;-70
2023/05/17 08:18:26;;;;;;;5.83;1.30;;;;;;;;;;5030065;28;20483;-71
2023/05/17 08:35:56;;;;;;;9.47;3.33;;;;;;;;;;4286144;26;20477;-80
2023/05/17 08:38:24;;;;;;;4.80;1.60;;;;;;;;;;5084700;28;20712;-79
2023/05/17 08:41:20;;;;;;;6.57;1.63;;;;;;;;;;5090514;28;20457;-77
2023/05/17 08:43:55;;;;;;;7.87;1.97;;;;;;;;;;5078913;28;20768;-79
2023/05/17 08:46:40;;;;;;;5.83;1.77;;;;;;;;;;5068703;28;20470;-80
2023/05/17 08:49:12;;;;;;;4.10;1.30;;;;;;;;;;5085674;28;20974;-79
2023/05/17 08:51:46;;;;;;;9.13;1.47;;;;;;;;;;5091082;28;20461;-79
2023/05/17 08:54:18;;;;;;;5.93;1.53;;;;;;;;;;5092876;28;20881;-80
2023/05/17 08:56:50;;;;;;;12.67;1.93;;;;;;;;;;5093969;28;20467;-79
2023/05/17 08:59:19;;;;;;;7.77;1.97;;;;;;;;;;5091689;28;20488;-79
2023/05/17 09:01:51;;;;;;;7.63;1.73;;;;;;;;;;5081010;28;20484;-81
2023/05/17 09:04:54;;;;;;;6.03;1.47;;;;;;;;;;5081407;28;20536;-80
2023/05/17 09:07:29;;;;;;;6.37;1.67;;;;;;;;;;5083877;28;20456;-81
2023/05/17 09:10:04;;;;;;;5.00;1.43;;;;;;;;;;5077293;28;20465;-79
2023/05/17 09:12:58;;;;;;;5.47;1.30;;;;;;;;;;5081327;28;20510;-79
2023/05/17 09:15:53;;;;;;;8.20;1.77;;;;;;;;;;5072041;28;20495;-79
2023/05/17 09:21:30;;;;;;;7.43;1.80;;;;;;;;;;5078541;28;20449;-79
2023/05/17 09:24:14;;;;;;;13.33;2.00;;;;;;;;;;5072621;28;20631;-81
2023/05/17 09:27:13;;;;;;;6.13;1.47;;;;;;;;;;5077349;28;20536;-83
2023/05/17 09:30:23;;;;;;;8.03;2.03;;;;;;;;;;5079676;28;20465;-81
2023/05/17 09:32:56;;;;;;;5.00;1.83;;;;;;;;;;5072896;28;20436;-80
2023/05/17 09:35:30;;;;;;;4.63;1.30;;;;;;;;;;5079579;28;20455;-81
2023/05/17 09:38:20;;;;;;;11.40;1.77;;;;;;;;;;5081103;28;20495;-82
2023/05/17 09:41:03;;;;;;;8.67;1.20;;;;;;;;;;5079173;28;20583;-80
2023/05/17 09:43:33;;;;;;;6.30;1.30;;;;;;;;;;5084136;28;20453;-80
2023/05/17 09:49:25;;;;;;;20.27;2.87;;;;;;;;;;5084988;28;20465;-79
2023/05/17 09:52:14;;;;;;;4.40;1.90;;;;;;;;;;5078919;28;20568;-81
2023/05/17 09:54:57;;;;;;;10.67;1.83;;;;;;;;;;5077191;28;20464;-80
2023/05/17 09:57:30;;;;;;;5.17;2.10;;;;;;;;;;5077024;28;20512;-81
2023/05/17 10:05:34;;;;;;;4.33;1.33;;;;;;;;;;5078584;28;20526;-79
2023/05/17 10:08:22;;;;;;;6.17;1.87;;;;;;;;;;5076882;28;20935;-79
2023/05/17 10:14:07;;;;;;;11.00;4.13;;;;;;;;;;5082519;28;20468;-83
2023/05/17 10:22:48;;;;;;;8.73;1.73;;;;;;;;;;5074080;28;20483;-79
2023/05/17 10:25:29;;;;;;;7.67;1.80;;;;;;;;;;5061805;28;20536;-79
2023/05/17 10:28:25;;;;;;;3.23;1.03;;;;;;;;;;5064025;28;20489;-80
2023/05/17 10:30:59;;;;;;;6.63;1.30;;;;;;;;;;5069774;28;20471;-78
2023/05/17 10:33:46;;;;;;;5.43;1.37;;;;;;;;;;5083553;28;20458;-78
2023/05/17 10:36:20;;;;;;;6.40;1.43;;;;;;;;;;5075628;28;20448;-82
2023/05/17 10:42:25;;;;;;;8.90;2.03;;;;;;;;;;5061106;28;20468;-80
2023/05/17 10:44:59;;;;;;;5.37;1.33;;;;;;;;;;5073884;28;20452;-80
2023/05/17 10:57:14;;;;;;;6.10;1.37;;;;;;;;;;5043171;28;20452;-79
2023/05/17 10:59:58;;;;;;;3.43;0.90;;;;;;;;;;5068784;28;21303;-80
2023/05/17 11:02:39;;;;;;;5.70;1.70;;;;;;;;;;5074788;28;20741;-82
2023/05/17 11:05:26;;;;;;;6.83;1.43;;;;;;;;;;5075028;28;20452;-83
2023/05/17 11:11:18;;;;;;;6.00;1.83;;;;;;;;;;5082578;28;20480;-80
2023/05/17 11:13:50;;;;;;;7.20;0.90;;;;;;;;;;5077915;28;20451;-80
2023/05/17 11:16:31;;;;;;;6.30;1.73;;;;;;;;;;5071394;28;20467;-81
2023/05/17 11:19:08;;;;;;;10.13;1.50;;;;;;;;;;5081998;28;20552;-80
2023/05/17 11:21:47;;;;;;;6.50;4.13;;;;;;;;;;5076758;28;20854;-81
2023/05/17 11:24:23;;;;;;;4.73;1.60;;;;;;;;;;5080141;28;20479;-80
2023/05/17 11:27:26;;;;;;;3.20;1.07;;;;;;;;;;5087558;28;20461;-83
2023/05/17 11:30:27;;;;;;;8.17;3.10;;;;;;;;;;5081320;28;20453;-78
2023/05/17 11:33:00;;;;;;;8.20;3.93;;;;;;;;;;5083537;28;20457;-80
2023/05/17 11:35:36;;;;;;;7.67;2.20;;;;;;;;;;5082075;28;20620;-78
2023/05/17 11:46:33;;;;;;;6.60;1.63;;;;;;;;;;5075463;28;20512;-79
2023/05/17 11:49:07;;;;;;;3.90;1.30;;;;;;;;;;5078887;28;20217;-81
2023/05/17 11:51:38;;;;;;;5.90;1.50;;;;;;;;;;5076279;28;20459;-79
2023/05/17 11:54:08;;;;;;;5.63;2.37;;;;;;;;;;5086182;28;20448;-79
2023/05/17 11:56:43;;;;;;;3.77;1.20;;;;;;;;;;5080550;28;20845;-79
2023/05/17 11:59:12;;;;;;;6.87;1.30;;;;;;;;;;5053507;28;20488;-80
2023/05/17 12:01:46;;;;;;;3.53;1.30;;;;;;;;;;5078406;28;20468;-81
2023/05/17 12:04:16;;;;;;;5.80;1.33;;;;;;;;;;5078720;28;20475;-80
2023/05/17 12:06:47;;;;;;;6.57;1.50;;;;;;;;;;5083325;28;20469;-80
2023/05/17 12:09:17;;;;;;;5.87;1.50;;;;;;;;;;5084370;28;20911;-81
2023/05/17 12:11:46;;;;;;;4.60;1.40;;;;;;;;;;5089794;28;21181;-80
2023/05/17 12:14:19;;;;;;;3.37;0.80;;;;;;;;;;5085688;28;20520;-81
2023/05/17 12:16:49;;;;;;;2.97;1.20;;;;;;;;;;5091429;28;20524;-81
2023/05/17 12:19:28;;;;;;;4.47;1.30;;;;;;;;;;5088765;28;20500;-81
2023/05/17 12:22:11;;;;;;;7.90;0.90;;;;;;;;;;5075016;28;20464;-82
2023/05/17 12:24:49;;;;;;;6.20;1.43;;;;;;;;;;5086186;28;20461;-80
2023/05/17 12:27:33;;;;;;;1.93;1.00;;;;;;;;;;5081819;28;20452;-82
2023/05/17 12:30:15;;;;;;;3.83;1.27;;;;;;;;;;5073826;28;20444;-79
2023/05/17 12:35:39;;;;;;;6.57;0.90;;;;;;;;;;5081588;28;20460;-78
2023/05/17 12:38:12;;;;;;;1.97;1.00;;;;;;;;;;5085140;28;20534;-79
2023/05/17 12:40:48;;;;;;;3.53;0.80;;;;;;;;;;5083843;28;20540;-79
2023/05/17 12:43:23;;;;;;;5.00;1.67;;;;;;;;;;5087497;28;20435;-80
2023/05/17 12:46:00;;;;;;;2.63;1.20;;;;;;;;;;5086357;28;20468;-81
2023/05/17 12:48:52;;;;;;;2.90;1.20;;;;;;;;;;5087710;28;20457;-79
2023/05/17 12:51:24;;;;;;;4.97;1.00;;;;;;;;;;5067636;28;20497;-78
2023/05/17 12:54:03;;;;;;;6.40;1.50;;;;;;;;;;5083582;28;20453;-79
2023/05/17 12:56:31;;;;;;;6.60;1.47;;;;;;;;;;5089925;28;20477;-82
2023/05/17 13:02:23;;;;;;;2.90;1.03;;;;;;;;;;5080583;28;20463;-82
2023/05/17 13:04:58;;;;;;;5.47;1.27;;;;;;;;;;5075675;28;20465;-78
2023/05/17 13:07:30;;;;;;;4.10;1.53;;;;;;;;;;5068100;28;20466;-82
2023/05/17 13:10:12;;;;;;;3.97;1.30;;;;;;;;;;5077200;28;20497;-79
2023/05/17 13:15:29;;;;;;;4.00;1.53;;;;;;;;;;5076500;28;20499;-81
2023/05/17 13:18:11;;;;;;;2.93;1.00;;;;;;;;;;5082970;28;20495;-81
2023/05/17 13:29:08;;;;;;;4.00;1.40;;;;;;;;;;5074515;28;20463;-70
2023/05/17 13:31:50;;;;;;;3.10;1.00;;;;;;;;;;5073952;28;20460;-71
2023/05/17 13:34:34;;;;;;;3.90;1.30;;;;;;;;;;5055287;28;20463;-71
2023/05/17 13:43:45;;;;;;;3.03;1.00;;;;;;;;;;5011693;28;20479;-70
2023/05/17 13:46:24;;;;;;;3.43;0.97;;;;;;;;;;5074961;28;20453;-71
2023/05/17 13:49:06;;;;;;;4.33;1.57;;;;;;;;;;5090176;28;20460;-75
2023/05/17 14:03:21;;;;;;;4.73;1.10;;;;;;;;;;5102908;28;20474;-72
2023/05/17 14:11:19;;;;;;;4.80;1.40;;;;;;;;;;5076342;28;20440;-69
2023/05/17 14:14:00;;;;;;;9.83;2.53;;;;;;;;;;5092565;28;20289;-72
2023/05/17 14:16:32;;;;;;;6.00;1.27;;;;;;;;;;5095058;28;20441;-70
2023/05/17 14:27:50;;;;;;;4.30;1.50;;;;;;;;;;5106108;28;20461;-71
2023/05/17 14:30:28;;;;;;;2.83;1.20;;;;;;;;;;5091742;28;20555;-70
2023/05/17 14:35:55;;;;;;;8.67;1.43;;;;;;;;;;5090006;28;20551;-71
2023/05/17 14:38:28;;;;;;;6.17;1.73;;;;;;;;;;5092130;28;20951;-70
2023/05/17 14:41:25;;;;;;;5.73;2.37;;;;;;;;;;5086248;28;20670;-71
2023/05/17 14:44:37;;;;;;;5.03;1.47;;;;;;;;;;5066137;28;20456;-71
2023/05/17 14:47:08;;;;;;;5.70;1.57;;;;;;;;;;5065322;28;20441;-70
2023/05/17 14:49:47;;;;;;;5.33;2.20;;;;;;;;;;5072707;28;20452;-70
2023/05/17 14:52:22;;;;;;;2.67;1.03;;;;;;;;;;5072435;28;20876;-70
2023/05/17 14:54:51;;;;;;;3.07;1.13;;;;;;;;;;5082044;28;21016;-70
2023/05/17 14:57:35;;;;;;;5.47;1.40;;;;;;;;;;5072538;28;20459;-69
2023/05/17 15:00:25;;;;;;;6.13;1.40;;;;;;;;;;5083464;28;20502;-71
2023/05/17 15:03:06;;;;;;;2.37;1.40;;;;;;;;;;5099693;28;20773;-70
2023/05/17 15:05:39;;;;;;;6.30;1.40;;;;;;;;;;5096264;28;20534;-71
2023/05/17 15:08:17;;;;;;;3.00;1.33;;;;;;;;;;5091075;28;20553;-71
2023/05/17 15:13:52;;;;;;;4.63;1.63;;;;;;;;;;5091703;28;20894;-70
2023/05/17 15:16:21;;;;;;;4.93;1.13;;;;;;;;;;5076390;28;20444;-71
2023/05/17 15:18:56;;;;;;;4.73;1.40;;;;;;;;;;5078110;28;20480;-70
2023/05/17 15:21:37;;;;;;;7.13;1.73;;;;;;;;;;5075770;28;20479;-70
2023/05/17 15:24:14;;;;;;;7.93;1.30;;;;;;;;;;5075315;28;20832;-71
2023/05/17 15:26:44;;;;;;;5.87;1.87;;;;;;;;;;5090903;28;20432;-69
2023/05/17 15:29:15;;;;;;;5.20;1.47;;;;;;;;;;5095525;28;20447;-69
2023/05/17 15:31:53;;;;;;;6.73;1.33;;;;;;;;;;5098379;28;20452;-70
2023/05/17 15:34:25;;;;;;;6.93;1.80;;;;;;;;;;5098829;28;20760;-69
2023/05/17 15:37:04;;;;;;;5.13;1.93;;;;;;;;;;5091979;28;20483;-70
2023/05/17 15:39:42;;;;;;;12.20;2.27;;;;;;;;;;5096632;28;20480;-69
2023/05/17 15:42:12;;;;;;;6.90;1.53;;;;;;;;;;5096985;28;20428;-70
2023/05/17 15:44:44;;;;;;;4.50;1.60;;;;;;;;;;5089188;28;20449;-71
2023/05/17 15:47:17;;;;;;;5.13;1.50;;;;;;;;;;5086779;28;21071;-69
2023/05/17 15:49:50;;;;;;;3.60;1.57;;;;;;;;;;5087240;28;20453;-69
2023/05/17 15:52:46;;;;;;;14.60;2.40;;;;;;;;;;5073080;28;20507;-70
2023/05/17 15:55:15;;;;;;;8.53;3.40;;;;;;;;;;5072446;28;21116;-71
2023/05/17 15:57:51;;;;;;;4.87;1.30;;;;;;;;;;5072388;28;20467;-71
2023/05/17 16:00:45;;;;;;;5.17;1.60;;;;;;;;;;5075110;28;20484;-70
2023/05/17 16:03:33;;;;;;;8.83;2.33;;;;;;;;;;5063565;28;20495;-70
2023/05/17 16:08:57;;;;;;;5.80;1.80;;;;;;;;;;5087054;28;20502;-70
2023/05/17 16:11:32;;;;;;;5.83;1.80;;;;;;;;;;5090816;28;20539;-70
2023/05/17 16:14:14;;;;;;;4.13;1.57;;;;;;;;;;5093856;28;20914;-70
2023/05/17 16:16:51;;;;;;;4.40;1.70;;;;;;;;;;5075482;28;20545;-72
2023/05/17 16:19:25;;;;;;;10.90;2.07;;;;;;;;;;5088961;28;20547;-70
2023/05/17 16:21:56;;;;;;;3.73;1.47;;;;;;;;;;5093232;28;20456;-71
2023/05/17 16:24:25;;;;;;;5.30;1.70;;;;;;;;;;5083126;28;20512;-69
2023/05/17 16:26:53;;;;;;;6.53;1.40;;;;;;;;;;5092418;28;20448;-71
2023/05/17 16:29:38;;;;;;;5.33;1.67;;;;;;;;;;5082280;28;20461;-71
2023/05/17 16:32:14;;;;;;;5.80;1.77;;;;;;;;;;5078885;28;20464;-72
2023/05/17 16:35:04;;;;;;;5.47;2.43;;;;;;;;;;5075438;28;20449;-70
2023/05/17 16:37:36;;;;;;;5.30;2.73;;;;;;;;;;5075219;28;20453;-70
2023/05/17 16:40:12;;;;;;;10.43;1.97;;;;;;;;;;5072817;28;20561;-71
2023/05/17 16:42:41;;;;;;;8.67;1.50;;;;;;;;;;5074497;28;20563;-70
2023/05/17 16:45:14;;;;;;;5.67;1.43;;;;;;;;;;5080367;28;20476;-70
2023/05/17 16:47:43;;;;;;;8.03;2.00;;;;;;;;;;5094750;28;20525;-71
2023/05/17 16:50:14;;;;;;;4.80;1.83;;;;;;;;;;5096167;28;20736;-71
2023/05/17 16:53:05;;;;;;;8.43;2.00;;;;;;;;;;5088900;28;20507;-70
2023/05/17 16:55:57;;;;;;;5.37;1.53;;;;;;;;;;5072962;28;20531;-71
2023/05/17 16:58:28;;;;;;;11.53;2.50;;;;;;;;;;5074124;28;20464;-69
2023/05/17 17:01:05;;;;;;;5.70;2.10;;;;;;;;;;5070522;28;20587;-70
2023/05/17 17:06:47;;;;;;;10.13;1.70;;;;;;;;;;5075187;28;20527;-71
2023/05/17 17:09:37;;;;;;;5.90;2.20;;;;;;;;;;5087827;28;20518;-71
2023/05/17 17:12:11;;;;;;;6.83;1.73;;;;;;;;;;5096177;28;20464;-70
2023/05/17 17:14:40;;;;;;;4.13;1.27;;;;;;;;;;5091978;28;20827;-69
2023/05/17 17:17:12;;;;;;;11.07;1.80;;;;;;;;;;5090295;28;20478;-71
2023/05/17 17:19:42;;;;;;;3.93;1.43;;;;;;;;;;5091538;28;20496;-69
2023/05/17 17:22:14;;;;;;;5.03;1.90;;;;;;;;;;5093255;28;20844;-71
2023/05/17 17:24:49;;;;;;;4.57;1.30;;;;;;;;;;5089495;28;20741;-71
2023/05/17 17:27:17;;;;;;;5.77;1.40;;;;;;;;;;5086467;28;20500;-69
2023/05/17 17:30:07;;;;;;;11.20;1.97;;;;;;;;;;5074333;28;20853;-71
2023/05/17 17:32:38;;;;;;;5.50;1.30;;;;;;;;;;5087444;28;20441;-70
2023/05/17 17:35:07;;;;;;;3.20;1.10;;;;;;;;;;5094500;22;20497;-80
2023/05/17 17:37:35;;;;;;;8.70;2.90;;;;;;;;;;5081269;28;20463;-81
2023/05/17 17:40:15;;;;;;;5.70;1.40;;;;;;;;;;5080594;28;20622;-80
2023/05/17 17:42:43;;;;;;;5.30;1.97;;;;;;;;;;5062219;28;20736;-79
2023/05/17 17:45:11;;;;;;;4.47;1.27;;;;;;;;;;5064862;28;20446;-79
2023/05/17 17:47:43;;;;;;;5.77;1.67;;;;;;;;;;5065891;28;20468;-79
2023/05/17 17:50:20;;;;;;;5.03;1.50;;;;;;;;;;5060744;28;20443;-82
2023/05/17 17:52:54;;;;;;;6.23;1.40;;;;;;;;;;5058485;28;20507;-80
2023/05/17 17:55:36;;;;;;;5.97;1.60;;;;;;;;;;5061728;28;20549;-82
2023/05/17 17:58:05;;;;;;;3.87;1.17;;;;;;;;;;5059757;28;20540;-80
2023/05/17 18:00:37;;;;;;;2.70;1.40;;;;;;;;;;5064455;28;20935;-80
2023/05/17 18:03:07;;;;;;;3.53;1.30;;;;;;;;;;5067056;28;20449;-83
2023/05/17 18:05:35;;;;;;;9.20;1.33;;;;;;;;;;5079439;28;20441;-80
2023/05/17 18:08:16;;;;;;;9.07;2.03;;;;;;;;;;5080919;28;20528;-84
2023/05/17 18:10:57;;;;;;;6.43;1.60;;;;;;;;;;5072492;28;20448;-83
2023/05/17 18:13:27;;;;;;;4.63;1.67;;;;;;;;;;5078371;28;20554;-80
2023/05/17 18:15:55;;;;;;;2.97;1.03;;;;;;;;;;5068909;28;20876;-80
2023/05/17 18:18:24;;;;;;;4.80;1.93;;;;;;;;;;5074541;28;20562;-82
2023/05/17 18:20:52;;;;;;;5.73;1.70;;;;;;;;;;5069873;28;20485;-81
2023/05/17 18:23:21;;;;;;;4.50;1.80;;;;;;;;;;5076124;28;20449;-80
2023/05/17 18:25:50;;;;;;;5.00;2.27;;;;;;;;;;5073571;28;20446;-82
2023/05/17 18:28:39;;;;;;;6.97;2.03;;;;;;;;;;5087823;28;20438;-81
2023/05/17 18:31:09;;;;;;;11.20;1.40;;;;;;;;;;5082943;28;20488;-80
2023/05/17 18:33:37;;;;;;;3.57;1.33;;;;;;;;;;5069369;28;20453;-80
2023/05/17 18:36:09;;;;;;;7.23;1.80;;;;;;;;;;5090359;28;20727;-80
2023/05/17 18:38:37;;;;;;;5.33;1.67;;;;;;;;;;5099374;28;20461;-79
2023/05/17 18:41:08;;;;;;;8.23;1.83;;;;;;;;;;5097630;28;20485;-79
2023/05/17 18:43:43;;;;;;;6.27;2.50;;;;;;;;;;5087216;28;20459;-80
2023/05/17 18:46:12;;;;;;;7.97;2.23;;;;;;;;;;5094126;28;20452;-81
2023/05/17 18:48:42;;;;;;;13.53;2.27;;;;;;;;;;5097204;28;20461;-80
2023/05/17 18:51:11;;;;;;;6.03;1.37;;;;;;;;;;5091682;28;20504;-79
2023/05/17 18:53:41;;;;;;;7.57;2.20;;;;;;;;;;5096721;28;20888;-80
2023/05/17 18:56:13;;;;;;;7.73;2.73;;;;;;;;;;5092479;28;20463;-80
2023/05/17 18:58:41;;;;;;;8.30;1.77;;;;;;;;;;5108290;28;20876;-79
2023/05/17 19:01:09;;;;;;;5.97;1.90;;;;;;;;;;5092203;28;20480;-81
2023/05/17 19:03:38;;;;;;;7.27;1.53;;;;;;;;;;5097059;28;20436;-80
2023/05/17 19:06:08;;;;;;;5.37;1.53;;;;;;;;;;5086556;28;20445;-79
2023/05/17 19:12:08;;;;;;;5.30;1.40;;;;;;;;;;5095900;28;20415;-79
2023/05/17 19:14:45;;;;;;;5.60;1.97;;;;;;;;;;5095692;28;20471;-79
2023/05/17 19:17:13;;;;;;;6.13;2.50;;;;;;;;;;5097850;28;20487;-78
2023/05/17 19:19:47;;;;;;;8.63;2.40;;;;;;;;;;5097113;28;20507;-81
2023/05/17 19:22:19;;;;;;;7.53;2.70;;;;;;;;;;5092166;28;20821;-80
2023/05/17 19:24:48;;;;;;;5.53;2.07;;;;;;;;;;5092867;28;20707;-80
2023/05/17 19:27:19;;;;;;;8.50;1.83;;;;;;;;;;5119055;28;20874;-80
2023/05/17 19:29:52;;;;;;;14.83;2.73;;;;;;;;;;5096817;28;20587;-79
2023/05/17 19:32:21;;;;;;;2.80;1.70;;;;;;;;;;5084369;28;20461;-79
2023/05/17 19:34:55;;;;;;;8.60;2.40;;;;;;;;;;5087856;28;20461;-78
2023/05/17 19:37:23;;;;;;;9.90;2.23;;;;;;;;;;5081206;28;20441;-80
2023/05/17 19:39:52;;;;;;;5.43;1.73;;;;;;;;;;5080864;28;20743;-79
2023/05/17 19:42:22;;;;;;;7.03;3.20;;;;;;;;;;5081828;28;20483;-80
2023/05/17 19:44:51;;;;;;;4.57;1.50;;;;;;;;;;5082779;28;20437;-81
2023/05/17 19:47:19;;;;;;;9.20;3.43;;;;;;;;;;5084077;28;20547;-81
2023/05/17 19:49:47;;;;;;;8.37;2.43;;;;;;;;;;5082684;28;20456;-79
2023/05/17 19:52:15;;;;;;;6.80;2.37;;;;;;;;;;5088983;28;20755;-81
2023/05/17 19:54:43;;;;;;;6.13;1.97;;;;;;;;;;5089510;28;20487;-82
2023/05/17 19:57:11;;;;;;;5.23;1.93;;;;;;;;;;5089426;28;20689;-80
2023/05/17 19:59:39;;;;;;;4.23;1.70;;;;;;;;;;5087918;28;20463;-80
2023/05/17 20:02:09;;;;;;;8.37;2.93;;;;;;;;;;5087565;28;20468;-82
2023/05/17 20:04:40;;;;;;;13.20;2.10;;;;;;;;;;5083715;28;20534;-80
2023/05/17 20:07:24;;;;;;;4.00;1.67;;;;;;;;;;5087927;28;20715;-82
2023/05/17 20:09:52;;;;;;;4.73;1.50;;;;;;;;;;5086674;28;20437;-81
2023/05/17 20:12:22;;;;;;;6.13;1.77;;;;;;;;;;5088970;28;20443;-81
2023/05/17 20:14:51;;;;;;;5.80;1.60;;;;;;;;;;5087679;28;20488;-81
2023/05/17 20:17:21;;;;;;;5.67;1.77;;;;;;;;;;5087868;28;20452;-81
2023/05/17 20:19:49;;;;;;;7.53;2.10;;;;;;;;;;5086338;28;20453;-82
2023/05/17 20:22:17;;;;;;;7.43;1.63;;;;;;;;;;5087080;28;20445;-82
2023/05/17 20:24:48;;;;;;;5.93;1.60;;;;;;;;;;5094980;28;20709;-80
2023/05/17 20:27:16;;;;;;;7.30;1.80;;;;;;;;;;5131240;28;20458;-79
2023/05/17 20:29:44;;;;;;;15.10;2.37;;;;;;;;;;5126188;28;20450;-81
2023/05/17 20:32:14;;;;;;;5.87;1.67;;;;;;;;;;5128884;28;20438;-79
2023/05/17 20:34:44;;;;;;;3.73;1.67;;;;;;;;;;5126957;28;21038;-82
2023/05/17 20:37:12;;;;;;;7.77;1.90;;;;;;;;;;5122462;28;20710;-80
2023/05/17 20:39:40;;;;;;;10.50;2.10;;;;;;;;;;5126456;28;20448;-80
2023/05/17 20:42:16;;;;;;;8.83;2.00;;;;;;;;;;5125718;28;20502;-82
2023/05/17 20:44:44;;;;;;;3.43;1.20;;;;;;;;;;5126018;28;20442;-81
2023/05/17 20:47:15;;;;;;;10.97;3.40;;;;;;;;;;5124245;28;20738;-82
2023/05/17 20:49:49;;;;;;;5.83;2.30;;;;;;;;;;5119087;28;20507;-82
2023/05/17 20:52:17;;;;;;;5.53;2.20;;;;;;;;;;5089563;28;20445;-80
2023/05/17 20:54:45;;;;;;;6.07;3.40;;;;;;;;;;5107679;28;20456;-80
2023/05/17 20:57:13;;;;;;;8.27;2.60;;;;;;;;;;5109108;28;20534;-80
2023/05/17 20:59:42;;;;;;;8.30;2.53;;;;;;;;;;5108573;28;20452;-81
2023/05/17 21:02:10;;;;;;;5.93;2.30;;;;;;;;;;5105956;28;20819;-81
2023/05/17 21:04:38;;;;;;;6.60;2.40;;;;;;;;;;5106282;28;20707;-81
2023/05/17 21:07:09;;;;;;;4.43;2.20;;;;;;;;;;5101737;28;20464;-80
2023/05/17 21:09:37;;;;;;;7.03;2.43;;;;;;;;;;5107546;28;20436;-80
2023/05/17 21:12:05;;;;;;;9.70;2.37;;;;;;;;;;5105901;28;20468;-79
2023/05/17 21:14:34;;;;;;;8.40;2.70;;;;;;;;;;5107124;28;20462;-80
2023/05/17 21:17:03;;;;;;;6.60;2.10;;;;;;;;;;5104916;28;20521;-80
2023/05/17 21:19:31;;;;;;;7.87;2.83;;;;;;;;;;5106531;28;20444;-79
2023/05/17 21:24:28;;;;;;;8.13;3.03;;;;;;;;;;5090237;28;20456;-70
2023/05/17 21:27:00;;;;;;;12.87;2.83;;;;;;;;;;5079325;28;20464;-69
2023/05/17 21:29:29;;;;;;;7.83;2.17;;;;;;;;;;5095032;28;21101;-69
2023/05/17 21:31:58;;;;;;;12.03;2.30;;;;;;;;;;5080505;28;20464;-70
2023/05/17 21:34:27;;;;;;;6.67;2.40;;;;;;;;;;5079517;28;20466;-71
2023/05/17 21:37:01;;;;;;;7.50;2.43;;;;;;;;;;5081815;28;20449;-72
2023/05/17 21:39:46;;;;;;;5.40;2.10;;;;;;;;;;5078407;28;20449;-70
2023/05/17 21:42:17;;;;;;;6.23;3.13;;;;;;;;;;5083272;28;20510;-71
2023/05/17 21:44:46;;;;;;;6.00;2.10;;;;;;;;;;5077162;28;20515;-70
2023/05/17 21:47:16;;;;;;;10.67;3.87;;;;;;;;;;5076997;28;20464;-70
2023/05/17 21:49:44;;;;;;;7.70;2.27;;;;;;;;;;5076862;28;20540;-69
2023/05/17 21:52:15;;;;;;;8.50;2.57;;;;;;;;;;5077379;28;20562;-69
2023/05/17 21:54:45;;;;;;;10.60;2.03;;;;;;;;;;5074464;28;20468;-69
2023/05/17 21:57:13;;;;;;;10.40;2.67;;;;;;;;;;5077167;28;20682;-69
2023/05/17 21:59:40;;;;;;;6.27;2.10;;;;;;;;;;5075588;28;20857;-71
2023/05/17 22:02:08;;;;;;;4.53;1.90;;;;;;;;;;5076744;28;20493;-70
2023/05/17 22:04:36;;;;;;;7.30;2.47;;;;;;;;;;5075640;28;20554;-70
2023/05/17 22:07:03;;;;;;;9.80;2.27;;;;;;;;;;5075031;28;20934;-71
2023/05/17 22:09:31;;;;;;;8.67;2.30;;;;;;;;;;5073805;28;20449;-71
2023/05/17 22:12:00;;;;;;;9.40;1.90;;;;;;;;;;5073225;28;20580;-71
2023/05/17 22:14:31;;;;;;;4.23;2.10;;;;;;;;;;5073898;28;20472;-70
2023/05/17 22:16:59;;;;;;;5.70;2.00;;;;;;;;;;5073998;28;20461;-70
2023/05/17 22:19:28;;;;;;;6.57;2.17;;;;;;;;;;5075612;28;20457;-70
2023/05/17 22:21:56;;;;;;;9.47;2.40;;;;;;;;;;5076925;28;20481;-69
2023/05/17 22:24:24;;;;;;;12.20;2.27;;;;;;;;;;5080552;28;20852;-69
2023/05/17 22:26:56;;;;;;;4.03;2.73;;;;;;;;;;5082676;28;20448;-69
2023/05/17 22:29:25;;;;;;;6.27;2.57;;;;;;;;;;5096720;28;20464;-70
2023/05/17 22:31:53;;;;;;;4.40;2.17;;;;;;;;;;5096782;28;20902;-69
2023/05/17 22:34:22;;;;;;;6.50;2.63;;;;;;;;;;5095491;28;20479;-69
2023/05/17 22:36:49;;;;;;;9.97;3.70;;;;;;;;;;5094813;28;20455;-70
2023/05/17 22:39:20;;;;;;;9.83;2.93;;;;;;;;;;5094609;28;20543;-69
2023/05/17 22:41:48;;;;;;;5.80;2.60;;;;;;;;;;5090809;28;20515;-69
2023/05/17 22:44:17;;;;;;;4.17;2.53;;;;;;;;;;5095269;28;20501;-69
2023/05/17 22:46:47;;;;;;;10.10;3.00;;;;;;;;;;5084479;28;20452;-69
2023/05/17 22:49:20;;;;;;;4.53;2.23;;;;;;;;;;5096213;28;20490;-69
2023/05/17 22:51:50;;;;;;;7.43;2.33;;;;;;;;;;5099876;28;20515;-72
2023/05/17 22:54:28;;;;;;;7.17;2.60;;;;;;;;;;5097363;28;20535;-69
2023/05/17 22:57:04;;;;;;;5.33;2.43;;;;;;;;;;5096585;28;20460;-71
2023/05/17 22:59:33;;;;;;;6.77;2.43;;;;;;;;;;5095904;28;20490;-70
2023/05/17 23:02:02;;;;;;;6.67;2.30;;;;;;;;;;5097732;28;20583;-68
2023/05/17 23:04:30;;;;;;;11.03;2.53;;;;;;;;;;5097215;28;20451;-69
2023/05/17 23:07:00;;;;;;;6.17;2.17;;;;;;;;;;5095403;28;20445;-69
2023/05/17 23:09:32;;;;;;;5.00;2.03;;;;;;;;;;5096757;28;20452;-70
2023/05/17 23:12:04;;;;;;;5.83;2.20;;;;;;;;;;5097208;28;20448;-68
2023/05/17 23:14:38;;;;;;;6.93;2.13;;;;;;;;;;5095375;28;20498;-70
2023/05/17 23:17:09;;;;;;;5.00;2.43;;;;;;;;;;5083203;28;20468;-70
2023/05/17 23:19:39;;;;;;;7.00;2.67;;;;;;;;;;5086442;28;20484;-69
2023/05/17 23:22:10;;;;;;;6.50;2.87;;;;;;;;;;5086651;28;20479;-70
2023/05/17 23:24:38;;;;;;;5.20;2.20;;;;;;;;;;5100939;28;20483;-70
2023/05/17 23:27:08;;;;;;;4.90;2.17;;;;;;;;;;5100594;28;21033;-69
2023/05/17 23:29:36;;;;;;;7.70;2.40;;;;;;;;;;5101044;28;20464;-70
2023/05/17 23:32:05;;;;;;;7.57;2.80;;;;;;;;;;5090804;28;20456;-70
2023/05/17 23:34:35;;;;;;;4.73;2.10;;;;;;;;;;5080220;28;20448;-70
2023/05/17 23:37:04;;;;;;;6.10;2.40;;;;;;;;;;5085990;28;20448;-71
2023/05/17 23:39:39;;;;;;;7.63;2.20;;;;;;;;;;5098907;28;20455;-70
2023/05/17 23:42:11;;;;;;;7.47;2.80;;;;;;;;;;5101215;28;20479;-70
2023/05/17 23:44:44;;;;;;;8.10;2.40;;;;;;;;;;5099453;28;20444;-71
2023/05/17 23:47:12;;;;;;;4.77;2.30;;;;;;;;;;5099598;28;20505;-69
2023/05/17 23:49:41;;;;;;;6.13;2.20;;;;;;;;;;5099360;28;20749;-70
2023/05/17 23:52:11;;;;;;;7.70;2.40;;;;;;;;;;5102699;28;20448;-71
2023/05/17 23:54:39;;;;;;;4.80;2.20;;;;;;;;;;5101202;28;20464;-70
2023/05/17 23:57:08;;;;;;;6.70;2.07;;;;;;;;;;5101137;28;20436;-71
2023/05/17 23:59:36;;;;;;;7.97;3.10;;;;;;;;;;5099605;28;20891;-69
